< < Back
Terminal Aerodrome Forecast


Current Version              Previous Versions:   1  2  3  4  5  6  7  8  9  

Terminal Aerodrome Forecast

692
FTUS42 KFFC 292330
TAFMCN
TAF
KMCN 292330Z 3000/3024 12003KT P6SM SCT250
     FM300300 16003KT P6SM BKN250
     FM301500 16006KT P6SM SCT040
     FM302000 18008KT P6SM VCSH BKN050=

Latest METAR

320
SAUS80 KWBC 292300 RRB
MTRMCN
METAR KMCN 292253Z 00000KT 10SM CLR 31/12 A2993 RMK AO2 SLP130
T03060117


USA.gov is the U.S. government's official web portal to all federal, state and local government web resources and services.